sensor_id;sensor_type;location;lat;lon;timestamp;P1;durP1;ratioP1;P2;durP2;ratioP2
46713;SDS011;32445;51.376;10.874;2022-10-31T00:00:49;8.73;;;3.45;;
46713;SDS011;32445;51.376;10.874;2022-10-31T00:03:49;4.90;;;4.43;;
46713;SDS011;32445;51.376;10.874;2022-10-31T00:06:50;13.53;;;5.33;;
46713;SDS011;32445;51.376;10.874;2022-10-31T00:09:50;8.73;;;5.30;;
46713;SDS011;32445;51.376;10.874;2022-10-31T00:12:51;9.10;;;8.20;;
46713;SDS011;32445;51.376;10.874;2022-10-31T00:15:51;11.43;;;7.40;;
46713;SDS011;32445;51.376;10.874;2022-10-31T00:18:52;10.53;;;5.90;;
46713;SDS011;32445;51.376;10.874;2022-10-31T00:21:54;9.38;;;6.20;;
46713;SDS011;32445;51.376;10.874;2022-10-31T00:24:54;7.03;;;5.37;;
46713;SDS011;32445;51.376;10.874;2022-10-31T00:27:55;7.77;;;6.67;;
46713;SDS011;32445;51.376;10.874;2022-10-31T00:30:59;5.78;;;5.28;;
46713;SDS011;32445;51.376;10.874;2022-10-31T00:34:00;8.90;;;5.75;;
46713;SDS011;32445;51.376;10.874;2022-10-31T00:37:02;6.25;;;5.25;;
46713;SDS011;32445;51.376;10.874;2022-10-31T00:40:03;9.73;;;5.70;;
46713;SDS011;32445;51.376;10.874;2022-10-31T00:43:03;11.00;;;6.13;;
46713;SDS011;32445;51.376;10.874;2022-10-31T00:46:04;7.20;;;4.10;;
46713;SDS011;32445;51.376;10.874;2022-10-31T00:49:04;9.87;;;4.37;;
46713;SDS011;32445;51.376;10.874;2022-10-31T00:52:05;9.80;;;3.60;;
46713;SDS011;32445;51.376;10.874;2022-10-31T00:55:05;6.55;;;4.15;;
46713;SDS011;32445;51.376;10.874;2022-10-31T00:58:05;6.80;;;4.15;;
46713;SDS011;32445;51.376;10.874;2022-10-31T01:01:06;10.27;;;4.03;;
46713;SDS011;32445;51.376;10.874;2022-10-31T01:04:06;3.50;;;3.03;;
46713;SDS011;32445;51.376;10.874;2022-10-31T01:07:06;4.78;;;3.45;;
46713;SDS011;32445;51.376;10.874;2022-10-31T01:10:08;16.10;;;3.72;;
46713;SDS011;32445;51.376;10.874;2022-10-31T01:13:09;5.88;;;3.40;;
46713;SDS011;32445;51.376;10.874;2022-10-31T01:16:10;7.90;;;3.47;;
46713;SDS011;32445;51.376;10.874;2022-10-31T01:19:12;8.55;;;3.20;;
46713;SDS011;32445;51.376;10.874;2022-10-31T01:22:13;4.77;;;4.07;;
46713;SDS011;32445;51.376;10.874;2022-10-31T01:25:13;8.48;;;4.78;;
46713;SDS011;32445;51.376;10.874;2022-10-31T01:28:13;6.93;;;3.80;;
46713;SDS011;32445;51.376;10.874;2022-10-31T01:31:14;9.13;;;5.03;;
46713;SDS011;32445;51.376;10.874;2022-10-31T01:34:17;5.43;;;3.78;;
46713;SDS011;32445;51.376;10.874;2022-10-31T01:37:17;7.23;;;4.43;;
46713;SDS011;32445;51.376;10.874;2022-10-31T01:40:17;6.67;;;4.80;;
46713;SDS011;32445;51.376;10.874;2022-10-31T01:43:18;4.43;;;3.60;;
46713;SDS011;32445;51.376;10.874;2022-10-31T01:46:24;7.10;;;4.10;;
46713;SDS011;32445;51.376;10.874;2022-10-31T01:49:34;4.47;;;3.53;;
46713;SDS011;32445;51.376;10.874;2022-10-31T01:52:44;10.82;;;4.22;;
46713;SDS011;32445;51.376;10.874;2022-10-31T01:55:47;10.38;;;4.20;;
46713;SDS011;32445;51.376;10.874;2022-10-31T01:58:48;11.30;;;4.80;;
46713;SDS011;32445;51.376;10.874;2022-10-31T02:01:49;4.10;;;3.72;;
46713;SDS011;32445;51.376;10.874;2022-10-31T02:04:51;5.45;;;4.50;;
46713;SDS011;32445;51.376;10.874;2022-10-31T02:08:16;4.75;;;3.67;;
46713;SDS011;32445;51.376;10.874;2022-10-31T02:11:30;8.02;;;4.70;;
46713;SDS011;32445;51.376;10.874;2022-10-31T02:14:31;5.47;;;4.93;;
46713;SDS011;32445;51.376;10.874;2022-10-31T02:17:31;7.65;;;4.47;;
46713;SDS011;32445;51.376;10.874;2022-10-31T02:20:42;18.73;;;5.35;;
46713;SDS011;32445;51.376;10.874;2022-10-31T02:30:22;9.20;;;3.38;;
46713;SDS011;32445;51.376;10.874;2022-10-31T02:33:26;5.93;;;4.22;;
46713;SDS011;32445;51.376;10.874;2022-10-31T02:43:33;11.25;;;4.57;;
46713;SDS011;32445;51.376;10.874;2022-10-31T02:46:49;9.95;;;4.85;;
46713;SDS011;32445;51.376;10.874;2022-10-31T02:53:16;6.00;;;4.57;;
46713;SDS011;32445;51.376;10.874;2022-10-31T02:56:17;12.93;;;4.05;;
46713;SDS011;32445;51.376;10.874;2022-10-31T02:59:18;6.63;;;4.68;;
46713;SDS011;32445;51.376;10.874;2022-10-31T03:06:00;5.85;;;4.55;;
46713;SDS011;32445;51.376;10.874;2022-10-31T03:12:17;6.00;;;3.75;;
46713;SDS011;32445;51.376;10.874;2022-10-31T03:15:30;5.13;;;3.85;;
46713;SDS011;32445;51.376;10.874;2022-10-31T03:18:34;6.90;;;3.28;;
46713;SDS011;32445;51.376;10.874;2022-10-31T03:21:42;4.05;;;3.65;;
46713;SDS011;32445;51.376;10.874;2022-10-31T03:24:44;6.72;;;4.22;;
46713;SDS011;32445;51.376;10.874;2022-10-31T03:27:48;5.57;;;3.95;;
46713;SDS011;32445;51.376;10.874;2022-10-31T03:30:50;8.18;;;3.60;;
46713;SDS011;32445;51.376;10.874;2022-10-31T03:33:53;6.45;;;3.97;;
46713;SDS011;32445;51.376;10.874;2022-10-31T03:36:57;6.20;;;3.95;;
46713;SDS011;32445;51.376;10.874;2022-10-31T03:40:02;4.32;;;2.88;;
46713;SDS011;32445;51.376;10.874;2022-10-31T03:43:06;4.05;;;3.72;;
46713;SDS011;32445;51.376;10.874;2022-10-31T03:46:10;6.80;;;3.40;;
46713;SDS011;32445;51.376;10.874;2022-10-31T03:49:10;8.77;;;4.22;;
46713;SDS011;32445;51.376;10.874;2022-10-31T03:55:40;8.90;;;4.55;;
46713;SDS011;32445;51.376;10.874;2022-10-31T03:59:01;7.28;;;5.32;;
46713;SDS011;32445;51.376;10.874;2022-10-31T04:02:09;6.35;;;4.68;;
46713;SDS011;32445;51.376;10.874;2022-10-31T04:05:23;9.57;;;5.20;;
46713;SDS011;32445;51.376;10.874;2022-10-31T04:08:24;7.75;;;4.80;;
46713;SDS011;32445;51.376;10.874;2022-10-31T04:11:29;9.18;;;5.03;;
46713;SDS011;32445;51.376;10.874;2022-10-31T04:14:33;9.77;;;4.53;;
46713;SDS011;32445;51.376;10.874;2022-10-31T04:17:39;10.25;;;4.20;;
46713;SDS011;32445;51.376;10.874;2022-10-31T04:20:42;6.68;;;4.55;;
46713;SDS011;32445;51.376;10.874;2022-10-31T04:23:42;6.05;;;4.28;;
46713;SDS011;32445;51.376;10.874;2022-10-31T04:26:43;8.82;;;4.22;;
46713;SDS011;32445;51.376;10.874;2022-10-31T04:29:43;6.30;;;3.70;;
46713;SDS011;32445;51.376;10.874;2022-10-31T04:32:43;4.28;;;3.80;;
46713;SDS011;32445;51.376;10.874;2022-10-31T04:35:44;5.47;;;3.65;;
46713;SDS011;32445;51.376;10.874;2022-10-31T04:38:44;7.65;;;4.05;;
46713;SDS011;32445;51.376;10.874;2022-10-31T04:41:45;7.55;;;3.92;;
46713;SDS011;32445;51.376;10.874;2022-10-31T04:44:45;3.85;;;3.42;;
46713;SDS011;32445;51.376;10.874;2022-10-31T04:47:45;4.95;;;4.53;;
46713;SDS011;32445;51.376;10.874;2022-10-31T04:50:45;6.05;;;3.50;;
46713;SDS011;32445;51.376;10.874;2022-10-31T04:53:46;7.90;;;4.28;;
46713;SDS011;32445;51.376;10.874;2022-10-31T04:56:46;9.23;;;3.60;;
46713;SDS011;32445;51.376;10.874;2022-10-31T04:59:46;12.30;;;3.80;;
46713;SDS011;32445;51.376;10.874;2022-10-31T05:02:51;5.13;;;3.45;;
46713;SDS011;32445;51.376;10.874;2022-10-31T05:05:53;10.10;;;3.80;;
46713;SDS011;32445;51.376;10.874;2022-10-31T05:08:53;6.78;;;3.75;;
46713;SDS011;32445;51.376;10.874;2022-10-31T05:11:53;5.85;;;3.40;;
46713;SDS011;32445;51.376;10.874;2022-10-31T05:14:54;11.55;;;3.40;;
46713;SDS011;32445;51.376;10.874;2022-10-31T05:17:54;6.43;;;3.58;;
46713;SDS011;32445;51.376;10.874;2022-10-31T05:20:55;4.03;;;3.63;;
46713;SDS011;32445;51.376;10.874;2022-10-31T05:23:56;9.70;;;3.55;;
46713;SDS011;32445;51.376;10.874;2022-10-31T05:26:56;5.47;;;2.88;;
46713;SDS011;32445;51.376;10.874;2022-10-31T05:29:56;5.45;;;4.13;;
46713;SDS011;32445;51.376;10.874;2022-10-31T05:32:57;4.38;;;3.33;;
46713;SDS011;32445;51.376;10.874;2022-10-31T05:35:57;8.63;;;3.85;;
46713;SDS011;32445;51.376;10.874;2022-10-31T05:38:57;8.00;;;5.03;;
46713;SDS011;32445;51.376;10.874;2022-10-31T05:41:58;5.03;;;4.60;;
46713;SDS011;32445;51.376;10.874;2022-10-31T05:44:58;5.75;;;5.18;;
46713;SDS011;32445;51.376;10.874;2022-10-31T05:47:59;10.38;;;3.70;;
46713;SDS011;32445;51.376;10.874;2022-10-31T05:51:01;4.55;;;4.00;;
46713;SDS011;32445;51.376;10.874;2022-10-31T05:54:01;5.50;;;4.88;;
46713;SDS011;32445;51.376;10.874;2022-10-31T05:57:01;4.68;;;4.22;;
46713;SDS011;32445;51.376;10.874;2022-10-31T06:00:02;5.45;;;4.68;;
46713;SDS011;32445;51.376;10.874;2022-10-31T06:06:05;5.03;;;4.43;;
46713;SDS011;32445;51.376;10.874;2022-10-31T06:09:06;8.43;;;3.83;;
46713;SDS011;32445;51.376;10.874;2022-10-31T06:12:07;5.00;;;4.40;;
46713;SDS011;32445;51.376;10.874;2022-10-31T06:15:08;6.47;;;3.20;;
46713;SDS011;32445;51.376;10.874;2022-10-31T06:18:08;10.43;;;3.88;;
46713;SDS011;32445;51.376;10.874;2022-10-31T06:21:09;8.23;;;4.15;;
46713;SDS011;32445;51.376;10.874;2022-10-31T06:24:09;8.55;;;4.13;;
46713;SDS011;32445;51.376;10.874;2022-10-31T06:27:09;6.07;;;4.00;;
46713;SDS011;32445;51.376;10.874;2022-10-31T06:30:10;7.68;;;3.83;;
46713;SDS011;32445;51.376;10.874;2022-10-31T06:33:10;8.52;;;4.07;;
46713;SDS011;32445;51.376;10.874;2022-10-31T06:36:11;3.63;;;2.85;;
46713;SDS011;32445;51.376;10.874;2022-10-31T06:39:11;3.58;;;3.28;;
46713;SDS011;32445;51.376;10.874;2022-10-31T06:42:11;9.95;;;4.78;;
46713;SDS011;32445;51.376;10.874;2022-10-31T06:45:12;10.73;;;6.80;;
46713;SDS011;32445;51.376;10.874;2022-10-31T06:48:13;8.02;;;6.90;;
46713;SDS011;32445;51.376;10.874;2022-10-31T06:51:31;8.52;;;6.03;;
46713;SDS011;32445;51.376;10.874;2022-10-31T06:54:31;9.07;;;7.00;;
46713;SDS011;32445;51.376;10.874;2022-10-31T06:57:31;10.45;;;5.55;;
46713;SDS011;32445;51.376;10.874;2022-10-31T07:00:32;7.95;;;7.13;;
46713;SDS011;32445;51.376;10.874;2022-10-31T07:03:32;6.13;;;5.53;;
46713;SDS011;32445;51.376;10.874;2022-10-31T07:06:32;8.90;;;7.22;;
46713;SDS011;32445;51.376;10.874;2022-10-31T07:09:33;11.52;;;6.70;;
46713;SDS011;32445;51.376;10.874;2022-10-31T07:12:33;7.88;;;7.05;;
46713;SDS011;32445;51.376;10.874;2022-10-31T07:15:34;6.07;;;5.57;;
46713;SDS011;32445;51.376;10.874;2022-10-31T07:18:36;6.68;;;6.03;;
46713;SDS011;32445;51.376;10.874;2022-10-31T07:21:36;7.03;;;5.10;;
46713;SDS011;32445;51.376;10.874;2022-10-31T07:24:37;10.18;;;6.82;;
46713;SDS011;32445;51.376;10.874;2022-10-31T07:27:37;14.88;;;7.35;;
46713;SDS011;32445;51.376;10.874;2022-10-31T07:30:42;7.25;;;6.40;;
46713;SDS011;32445;51.376;10.874;2022-10-31T07:33:42;13.13;;;7.45;;
46713;SDS011;32445;51.376;10.874;2022-10-31T07:36:42;11.45;;;10.38;;
46713;SDS011;32445;51.376;10.874;2022-10-31T07:39:43;18.33;;;15.77;;
46713;SDS011;32445;51.376;10.874;2022-10-31T07:42:44;20.63;;;15.32;;
46713;SDS011;32445;51.376;10.874;2022-10-31T07:45:49;18.08;;;13.40;;
46713;SDS011;32445;51.376;10.874;2022-10-31T07:48:53;12.68;;;11.55;;
46713;SDS011;32445;51.376;10.874;2022-10-31T07:51:53;16.17;;;14.65;;
46713;SDS011;32445;51.376;10.874;2022-10-31T07:54:55;23.58;;;14.88;;
46713;SDS011;32445;51.376;10.874;2022-10-31T07:57:59;12.65;;;10.70;;
46713;SDS011;32445;51.376;10.874;2022-10-31T08:01:02;15.57;;;11.48;;
46713;SDS011;32445;51.376;10.874;2022-10-31T08:04:03;11.93;;;9.20;;
46713;SDS011;32445;51.376;10.874;2022-10-31T08:07:03;12.82;;;9.07;;
46713;SDS011;32445;51.376;10.874;2022-10-31T08:10:04;12.82;;;8.48;;
46713;SDS011;32445;51.376;10.874;2022-10-31T08:13:05;15.23;;;10.57;;
46713;SDS011;32445;51.376;10.874;2022-10-31T08:16:10;9.73;;;8.68;;
46713;SDS011;32445;51.376;10.874;2022-10-31T08:19:10;12.82;;;9.13;;
46713;SDS011;32445;51.376;10.874;2022-10-31T08:22:11;8.55;;;7.65;;
46713;SDS011;32445;51.376;10.874;2022-10-31T08:25:11;11.77;;;8.80;;
46713;SDS011;32445;51.376;10.874;2022-10-31T08:28:11;11.13;;;9.40;;
46713;SDS011;32445;51.376;10.874;2022-10-31T08:31:12;12.63;;;8.13;;
46713;SDS011;32445;51.376;10.874;2022-10-31T08:34:12;9.73;;;8.40;;
46713;SDS011;32445;51.376;10.874;2022-10-31T08:37:12;9.02;;;8.30;;
46713;SDS011;32445;51.376;10.874;2022-10-31T08:40:13;16.10;;;9.77;;
46713;SDS011;32445;51.376;10.874;2022-10-31T08:43:13;13.23;;;9.73;;
46713;SDS011;32445;51.376;10.874;2022-10-31T08:46:15;13.85;;;9.95;;
46713;SDS011;32445;51.376;10.874;2022-10-31T08:49:15;16.80;;;9.55;;
46713;SDS011;32445;51.376;10.874;2022-10-31T08:52:16;14.35;;;10.00;;
46713;SDS011;32445;51.376;10.874;2022-10-31T08:55:16;15.63;;;8.75;;
46713;SDS011;32445;51.376;10.874;2022-10-31T08:58:17;14.85;;;10.00;;
46713;SDS011;32445;51.376;10.874;2022-10-31T09:01:19;11.50;;;10.20;;
46713;SDS011;32445;51.376;10.874;2022-10-31T09:04:19;11.63;;;10.25;;
46713;SDS011;32445;51.376;10.874;2022-10-31T09:07:19;9.13;;;8.13;;
46713;SDS011;32445;51.376;10.874;2022-10-31T09:10:20;14.73;;;8.60;;
46713;SDS011;32445;51.376;10.874;2022-10-31T09:13:20;15.88;;;8.77;;
46713;SDS011;32445;51.376;10.874;2022-10-31T09:16:21;14.25;;;9.25;;
46713;SDS011;32445;51.376;10.874;2022-10-31T09:19:21;13.20;;;9.53;;
46713;SDS011;32445;51.376;10.874;2022-10-31T09:22:21;15.00;;;8.95;;
46713;SDS011;32445;51.376;10.874;2022-10-31T09:25:22;15.85;;;10.35;;
46713;SDS011;32445;51.376;10.874;2022-10-31T09:28:23;15.73;;;9.45;;
46713;SDS011;32445;51.376;10.874;2022-10-31T09:31:23;20.65;;;10.13;;
46713;SDS011;32445;51.376;10.874;2022-10-31T09:34:24;16.20;;;9.60;;
46713;SDS011;32445;51.376;10.874;2022-10-31T09:37:24;18.67;;;10.88;;
46713;SDS011;32445;51.376;10.874;2022-10-31T09:40:32;18.63;;;11.57;;
46713;SDS011;32445;51.376;10.874;2022-10-31T09:43:46;22.95;;;11.38;;
46713;SDS011;32445;51.376;10.874;2022-10-31T09:47:27;13.65;;;10.80;;
46713;SDS011;32445;51.376;10.874;2022-10-31T09:50:32;19.92;;;12.48;;
46713;SDS011;32445;51.376;10.874;2022-10-31T09:53:42;17.75;;;12.35;;
46713;SDS011;32445;51.376;10.874;2022-10-31T09:56:52;18.35;;;12.43;;
46713;SDS011;32445;51.376;10.874;2022-10-31T09:59:55;17.45;;;12.80;;
46713;SDS011;32445;51.376;10.874;2022-10-31T10:02:57;16.40;;;11.83;;
46713;SDS011;32445;51.376;10.874;2022-10-31T10:06:08;19.35;;;12.25;;
46713;SDS011;32445;51.376;10.874;2022-10-31T10:09:14;22.80;;;13.77;;
46713;SDS011;32445;51.376;10.874;2022-10-31T10:15:47;19.08;;;11.23;;
46713;SDS011;32445;51.376;10.874;2022-10-31T10:25:54;16.70;;;11.00;;
46713;SDS011;32445;51.376;10.874;2022-10-31T10:32:35;11.82;;;10.63;;
46713;SDS011;32445;51.376;10.874;2022-10-31T10:35:43;13.38;;;10.80;;
46713;SDS011;32445;51.376;10.874;2022-10-31T10:38:59;30.90;;;11.68;;
46713;SDS011;32445;51.376;10.874;2022-10-31T10:42:06;20.50;;;12.05;;
46713;SDS011;32445;51.376;10.874;2022-10-31T10:45:29;17.45;;;12.07;;
46713;SDS011;32445;51.376;10.874;2022-10-31T10:52:25;18.85;;;11.98;;
46713;SDS011;32445;51.376;10.874;2022-10-31T10:55:39;19.48;;;11.10;;
46713;SDS011;32445;51.376;10.874;2022-10-31T10:58:46;14.25;;;10.05;;
46713;SDS011;32445;51.376;10.874;2022-10-31T11:01:48;14.65;;;9.88;;
46713;SDS011;32445;51.376;10.874;2022-10-31T11:04:52;19.55;;;9.40;;
46713;SDS011;32445;51.376;10.874;2022-10-31T11:07:54;13.30;;;9.30;;
46713;SDS011;32445;51.376;10.874;2022-10-31T11:10:59;10.63;;;8.63;;
46713;SDS011;32445;51.376;10.874;2022-10-31T11:14:03;12.88;;;8.57;;
46713;SDS011;32445;51.376;10.874;2022-10-31T11:17:47;16.40;;;9.57;;
46713;SDS011;32445;51.376;10.874;2022-10-31T11:20:39;14.35;;;8.98;;
46713;SDS011;32445;51.376;10.874;2022-10-31T11:23:40;16.47;;;9.57;;
46713;SDS011;32445;51.376;10.874;2022-10-31T11:26:41;12.13;;;9.57;;
46713;SDS011;32445;51.376;10.874;2022-10-31T11:29:43;13.80;;;8.82;;
46713;SDS011;32445;51.376;10.874;2022-10-31T11:32:46;10.70;;;8.60;;
46713;SDS011;32445;51.376;10.874;2022-10-31T11:35:49;20.45;;;8.40;;
46713;SDS011;32445;51.376;10.874;2022-10-31T11:38:50;17.80;;;7.82;;
46713;SDS011;32445;51.376;10.874;2022-10-31T11:41:52;14.05;;;8.00;;
46713;SDS011;32445;51.376;10.874;2022-10-31T11:44:54;14.85;;;7.53;;
46713;SDS011;32445;51.376;10.874;2022-10-31T11:47:56;13.00;;;8.32;;
46713;SDS011;32445;51.376;10.874;2022-10-31T11:50:57;17.08;;;7.47;;
46713;SDS011;32445;51.376;10.874;2022-10-31T11:53:58;12.43;;;6.17;;
46713;SDS011;32445;51.376;10.874;2022-10-31T11:57:02;15.60;;;8.07;;
46713;SDS011;32445;51.376;10.874;2022-10-31T12:00:03;10.20;;;7.33;;
46713;SDS011;32445;51.376;10.874;2022-10-31T12:06:30;11.48;;;6.10;;
46713;SDS011;32445;51.376;10.874;2022-10-31T12:09:34;10.40;;;6.87;;
46713;SDS011;32445;51.376;10.874;2022-10-31T12:15:50;8.80;;;6.15;;
46713;SDS011;32445;51.376;10.874;2022-10-31T12:18:57;16.85;;;6.80;;
46713;SDS011;32445;51.376;10.874;2022-10-31T12:28:43;18.20;;;7.45;;
46713;SDS011;32445;51.376;10.874;2022-10-31T12:42:04;11.23;;;7.15;;
46713;SDS011;32445;51.376;10.874;2022-10-31T12:45:16;17.08;;;7.57;;
46713;SDS011;32445;51.376;10.874;2022-10-31T12:55:14;16.95;;;10.95;;
46713;SDS011;32445;51.376;10.874;2022-10-31T12:58:26;20.77;;;12.75;;
46713;SDS011;32445;51.376;10.874;2022-10-31T13:04:35;13.23;;;11.73;;
46713;SDS011;32445;51.376;10.874;2022-10-31T13:11:15;13.00;;;10.73;;
46713;SDS011;32445;51.376;10.874;2022-10-31T13:14:23;11.95;;;10.75;;
46713;SDS011;32445;51.376;10.874;2022-10-31T13:20:43;18.52;;;11.98;;
46713;SDS011;32445;51.376;10.874;2022-10-31T13:23:47;13.40;;;10.95;;
46713;SDS011;32445;51.376;10.874;2022-10-31T13:26:52;18.52;;;11.40;;
46713;SDS011;32445;51.376;10.874;2022-10-31T13:33:16;13.75;;;10.45;;
46713;SDS011;32445;51.376;10.874;2022-10-31T13:36:33;13.55;;;10.98;;
46713;SDS011;32445;51.376;10.874;2022-10-31T13:39:46;25.65;;;11.98;;
46713;SDS011;32445;51.376;10.874;2022-10-31T13:42:52;13.00;;;11.13;;
46713;SDS011;32445;51.376;10.874;2022-10-31T13:45:58;21.67;;;12.75;;
46713;SDS011;32445;51.376;10.874;2022-10-31T13:48:59;18.73;;;13.87;;
46713;SDS011;32445;51.376;10.874;2022-10-31T13:55:07;17.70;;;14.75;;
46713;SDS011;32445;51.376;10.874;2022-10-31T13:59:21;25.17;;;14.55;;
46713;SDS011;32445;51.376;10.874;2022-10-31T14:02:48;26.25;;;18.05;;
46713;SDS011;32445;51.376;10.874;2022-10-31T14:05:51;22.13;;;16.23;;
46713;SDS011;32445;51.376;10.874;2022-10-31T14:08:53;22.00;;;16.90;;
46713;SDS011;32445;51.376;10.874;2022-10-31T14:11:53;26.33;;;16.93;;
46713;SDS011;32445;51.376;10.874;2022-10-31T14:18:05;29.23;;;18.67;;
46713;SDS011;32445;51.376;10.874;2022-10-31T14:21:14;26.15;;;19.23;;
46713;SDS011;32445;51.376;10.874;2022-10-31T14:30:25;26.13;;;18.60;;
46713;SDS011;32445;51.376;10.874;2022-10-31T14:33:27;21.77;;;19.17;;
46713;SDS011;32445;51.376;10.874;2022-10-31T14:36:34;24.25;;;18.17;;
46713;SDS011;32445;51.376;10.874;2022-10-31T14:46:50;19.90;;;17.90;;
46713;SDS011;32445;51.376;10.874;2022-10-31T14:51:02;37.95;;;17.17;;
46713;SDS011;32445;51.376;10.874;2022-10-31T14:53:35;30.45;;;18.35;;
46713;SDS011;32445;51.376;10.874;2022-10-31T14:56:49;18.13;;;15.93;;
46713;SDS011;32445;51.376;10.874;2022-10-31T14:59:54;35.58;;;19.98;;
46713;SDS011;32445;51.376;10.874;2022-10-31T15:03:21;24.88;;;20.40;;
46713;SDS011;32445;51.376;10.874;2022-10-31T15:06:24;22.05;;;17.50;;
46713;SDS011;32445;51.376;10.874;2022-10-31T15:09:27;20.98;;;16.08;;
46713;SDS011;32445;51.376;10.874;2022-10-31T15:12:35;17.02;;;15.25;;
46713;SDS011;32445;51.376;10.874;2022-10-31T15:15:38;25.33;;;15.75;;
46713;SDS011;32445;51.376;10.874;2022-10-31T15:18:53;26.50;;;17.13;;
46713;SDS011;32445;51.376;10.874;2022-10-31T15:21:56;24.45;;;18.08;;
46713;SDS011;32445;51.376;10.874;2022-10-31T15:24:57;23.45;;;17.58;;
46713;SDS011;32445;51.376;10.874;2022-10-31T15:27:58;20.03;;;16.13;;
46713;SDS011;32445;51.376;10.874;2022-10-31T15:31:00;24.93;;;18.07;;
46713;SDS011;32445;51.376;10.874;2022-10-31T15:34:03;22.75;;;19.23;;
46713;SDS011;32445;51.376;10.874;2022-10-31T15:37:13;21.98;;;16.98;;
46713;SDS011;32445;51.376;10.874;2022-10-31T15:40:15;16.35;;;14.63;;
46713;SDS011;32445;51.376;10.874;2022-10-31T15:43:18;18.05;;;14.13;;
46713;SDS011;32445;51.376;10.874;2022-10-31T15:46:19;19.67;;;13.50;;
46713;SDS011;32445;51.376;10.874;2022-10-31T15:49:29;24.03;;;14.93;;
46713;SDS011;32445;51.376;10.874;2022-10-31T15:52:33;23.40;;;14.55;;
46713;SDS011;32445;51.376;10.874;2022-10-31T15:55:38;18.27;;;14.18;;
46713;SDS011;32445;51.376;10.874;2022-10-31T15:58:48;16.13;;;13.65;;
46713;SDS011;32445;51.376;10.874;2022-10-31T16:02:01;19.60;;;14.00;;
46713;SDS011;32445;51.376;10.874;2022-10-31T16:14:37;24.02;;;16.00;;
46713;SDS011;32445;51.376;10.874;2022-10-31T16:17:40;19.83;;;15.18;;
46713;SDS011;32445;51.376;10.874;2022-10-31T16:20:47;16.50;;;14.50;;
46713;SDS011;32445;51.376;10.874;2022-10-31T16:23:51;19.73;;;15.02;;
46713;SDS011;32445;51.376;10.874;2022-10-31T16:26:58;22.00;;;15.02;;
46713;SDS011;32445;51.376;10.874;2022-10-31T16:30:49;19.42;;;14.85;;
46713;SDS011;32445;51.376;10.874;2022-10-31T16:33:35;26.38;;;15.98;;
46713;SDS011;32445;51.376;10.874;2022-10-31T16:36:36;18.48;;;16.05;;
46713;SDS011;32445;51.376;10.874;2022-10-31T16:39:42;22.48;;;16.17;;
46713;SDS011;32445;51.376;10.874;2022-10-31T16:42:45;20.25;;;16.95;;
46713;SDS011;32445;51.376;10.874;2022-10-31T16:45:51;26.80;;;17.60;;
46713;SDS011;32445;51.376;10.874;2022-10-31T16:48:52;18.33;;;16.05;;
46713;SDS011;32445;51.376;10.874;2022-10-31T16:51:54;21.15;;;15.30;;
46713;SDS011;32445;51.376;10.874;2022-10-31T16:54:54;22.47;;;16.57;;
46713;SDS011;32445;51.376;10.874;2022-10-31T16:57:55;20.60;;;17.27;;
46713;SDS011;32445;51.376;10.874;2022-10-31T17:00:56;21.40;;;16.30;;
46713;SDS011;32445;51.376;10.874;2022-10-31T17:03:57;19.42;;;16.67;;
46713;SDS011;32445;51.376;10.874;2022-10-31T17:06:58;17.77;;;15.80;;
46713;SDS011;32445;51.376;10.874;2022-10-31T17:09:58;26.83;;;16.77;;
46713;SDS011;32445;51.376;10.874;2022-10-31T17:12:58;25.60;;;16.57;;
46713;SDS011;32445;51.376;10.874;2022-10-31T17:16:02;27.60;;;17.17;;
46713;SDS011;32445;51.376;10.874;2022-10-31T17:19:03;19.38;;;15.75;;
46713;SDS011;32445;51.376;10.874;2022-10-31T17:22:04;23.10;;;17.80;;
46713;SDS011;32445;51.376;10.874;2022-10-31T17:25:04;19.27;;;16.47;;
46713;SDS011;32445;51.376;10.874;2022-10-31T17:28:12;24.43;;;17.10;;
46713;SDS011;32445;51.376;10.874;2022-10-31T17:31:19;34.75;;;18.23;;
46713;SDS011;32445;51.376;10.874;2022-10-31T17:34:22;22.27;;;16.15;;
46713;SDS011;32445;51.376;10.874;2022-10-31T17:37:22;25.80;;;19.57;;
46713;SDS011;32445;51.376;10.874;2022-10-31T17:40:22;27.80;;;17.73;;
46713;SDS011;32445;51.376;10.874;2022-10-31T17:43:23;35.20;;;19.37;;
46713;SDS011;32445;51.376;10.874;2022-10-31T17:46:26;23.80;;;18.67;;
46713;SDS011;32445;51.376;10.874;2022-10-31T17:49:27;25.63;;;19.15;;
46713;SDS011;32445;51.376;10.874;2022-10-31T17:52:27;30.43;;;21.10;;
46713;SDS011;32445;51.376;10.874;2022-10-31T17:55:28;37.60;;;21.50;;
46713;SDS011;32445;51.376;10.874;2022-10-31T17:58:28;26.37;;;20.83;;
46713;SDS011;32445;51.376;10.874;2022-10-31T18:01:29;30.97;;;21.63;;
46713;SDS011;32445;51.376;10.874;2022-10-31T18:04:29;31.20;;;19.67;;
46713;SDS011;32445;51.376;10.874;2022-10-31T18:13:43;27.27;;;19.17;;
46713;SDS011;32445;51.376;10.874;2022-10-31T18:16:44;25.27;;;18.33;;
46713;SDS011;32445;51.376;10.874;2022-10-31T18:19:44;25.80;;;17.23;;
46713;SDS011;32445;51.376;10.874;2022-10-31T18:22:45;25.27;;;17.17;;
46713;SDS011;32445;51.376;10.874;2022-10-31T18:25:45;21.67;;;17.30;;
46713;SDS011;32445;51.376;10.874;2022-10-31T18:28:45;26.80;;;22.67;;
46713;SDS011;32445;51.376;10.874;2022-10-31T18:31:46;30.30;;;24.07;;
46713;SDS011;32445;51.376;10.874;2022-10-31T18:34:47;35.22;;;26.33;;
46713;SDS011;32445;51.376;10.874;2022-10-31T18:37:47;32.37;;;22.80;;
46713;SDS011;32445;51.376;10.874;2022-10-31T18:40:49;25.33;;;20.77;;
46713;SDS011;32445;51.376;10.874;2022-10-31T18:43:50;30.63;;;20.38;;
46713;SDS011;32445;51.376;10.874;2022-10-31T18:46:53;23.08;;;16.33;;
46713;SDS011;32445;51.376;10.874;2022-10-31T18:49:53;35.83;;;21.40;;
46713;SDS011;32445;51.376;10.874;2022-10-31T18:52:56;31.13;;;21.83;;
46713;SDS011;32445;51.376;10.874;2022-10-31T18:55:56;26.95;;;21.20;;
46713;SDS011;32445;51.376;10.874;2022-10-31T18:58:58;29.98;;;21.92;;
46713;SDS011;32445;51.376;10.874;2022-10-31T19:02:02;33.78;;;22.08;;
46713;SDS011;32445;51.376;10.874;2022-10-31T19:05:02;31.60;;;22.20;;
46713;SDS011;32445;51.376;10.874;2022-10-31T19:08:03;35.53;;;24.53;;
46713;SDS011;32445;51.376;10.874;2022-10-31T19:11:10;34.17;;;23.60;;
46713;SDS011;32445;51.376;10.874;2022-10-31T19:14:12;44.75;;;24.45;;
46713;SDS011;32445;51.376;10.874;2022-10-31T19:17:13;30.13;;;23.75;;
46713;SDS011;32445;51.376;10.874;2022-10-31T19:20:14;38.97;;;24.30;;
46713;SDS011;32445;51.376;10.874;2022-10-31T19:23:14;33.60;;;22.87;;
46713;SDS011;32445;51.376;10.874;2022-10-31T19:26:16;35.05;;;22.60;;
46713;SDS011;32445;51.376;10.874;2022-10-31T19:29:16;35.27;;;25.63;;
46713;SDS011;32445;51.376;10.874;2022-10-31T19:32:17;46.27;;;27.50;;
46713;SDS011;32445;51.376;10.874;2022-10-31T19:35:17;43.93;;;26.10;;
46713;SDS011;32445;51.376;10.874;2022-10-31T19:38:18;37.13;;;24.97;;
46713;SDS011;32445;51.376;10.874;2022-10-31T19:41:20;37.30;;;28.70;;
46713;SDS011;32445;51.376;10.874;2022-10-31T19:44:22;38.85;;;25.30;;
46713;SDS011;32445;51.376;10.874;2022-10-31T19:47:22;36.33;;;26.77;;
46713;SDS011;32445;51.376;10.874;2022-10-31T19:50:23;41.00;;;26.30;;
46713;SDS011;32445;51.376;10.874;2022-10-31T19:53:23;47.27;;;28.00;;
46713;SDS011;32445;51.376;10.874;2022-10-31T19:56:24;36.80;;;27.30;;
46713;SDS011;32445;51.376;10.874;2022-10-31T19:59:25;50.30;;;26.88;;